createdAt,value
2018-01-28T00:00:36.111Z,0
2018-01-28T00:01:38.892Z,0
2018-01-28T00:02:41.386Z,0
2018-01-28T00:03:44.455Z,0
2018-01-28T00:04:46.962Z,0
2018-01-28T00:05:49.446Z,0
2018-01-28T00:06:51.947Z,0
2018-01-28T00:07:54.447Z,0
2018-01-28T00:08:56.930Z,0
2018-01-28T00:09:59.423Z,0
2018-01-28T00:11:01.922Z,0
2018-01-28T00:12:04.422Z,0
2018-01-28T00:13:06.915Z,0
2018-01-28T00:14:09.412Z,0
2018-01-28T00:15:11.897Z,0
2018-01-28T00:16:14.408Z,0
2018-01-28T00:17:16.903Z,0
2018-01-28T00:18:19.389Z,0
2018-01-28T00:19:21.885Z,0
2018-01-28T00:20:24.372Z,0
2018-01-28T00:21:26.873Z,0
2018-01-28T00:22:29.666Z,0
2018-01-28T00:23:32.171Z,0
2018-01-28T00:24:34.955Z,0
2018-01-28T00:25:37.437Z,0
2018-01-28T00:26:39.936Z,0
2018-01-28T00:27:42.429Z,0
2018-01-28T00:28:44.924Z,0
2018-01-28T00:29:47.435Z,0
2018-01-28T00:30:50.220Z,0
2018-01-28T00:31:52.704Z,0
2018-01-28T00:32:55.215Z,0
2018-01-28T00:33:57.713Z,0
2018-01-28T00:35:00.205Z,0
2018-01-28T00:36:03.007Z,0
2018-01-28T00:37:05.499Z,0
2018-01-28T00:38:08.309Z,0
2018-01-28T00:39:10.804Z,0
2018-01-28T00:40:13.287Z,0
2018-01-28T00:41:16.068Z,0
2018-01-28T00:42:18.574Z,0
2018-01-28T00:43:21.066Z,0
2018-01-28T00:44:23.556Z,0
2018-01-28T00:45:26.055Z,0
2018-01-28T00:46:28.547Z,0
2018-01-28T00:47:31.042Z,0
2018-01-28T00:48:33.539Z,0
2018-01-28T00:49:36.015Z,0
2018-01-28T00:50:38.508Z,0
2018-01-28T00:51:41.013Z,0
2018-01-28T00:52:43.498Z,0
2018-01-28T00:53:46.576Z,0
2018-01-28T00:54:49.068Z,0
2018-01-28T00:55:51.857Z,0
2018-01-28T00:56:54.330Z,0
2018-01-28T00:57:56.828Z,0
2018-01-28T00:58:59.324Z,0
2018-01-28T01:00:02.098Z,0
2018-01-28T01:01:04.595Z,0
2018-01-28T01:02:07.083Z,0
2018-01-28T01:03:09.576Z,0
2018-01-28T01:04:12.083Z,0
2018-01-28T01:05:14.579Z,0
2018-01-28T01:06:17.056Z,0
2018-01-28T01:07:19.561Z,0
2018-01-28T01:08:22.047Z,0
2018-01-28T01:09:24.545Z,0
2018-01-28T01:10:27.049Z,0
2018-01-28T01:11:29.538Z,0
2018-01-28T01:12:32.029Z,0
2018-01-28T01:13:34.821Z,0
2018-01-28T01:14:37.294Z,0
2018-01-28T01:15:39.802Z,0
2018-01-28T01:16:42.276Z,0
2018-01-28T01:17:44.774Z,0
2018-01-28T01:18:47.265Z,0
2018-01-28T01:19:49.758Z,0
2018-01-28T01:20:52.249Z,0
2018-01-28T01:21:54.748Z,0
2018-01-28T01:22:57.234Z,0
2018-01-28T01:23:59.735Z,0
2018-01-28T01:25:02.230Z,0
2018-01-28T01:26:04.725Z,0
2018-01-28T01:27:07.225Z,0
2018-01-28T01:28:09.729Z,0
2018-01-28T01:29:12.204Z,0
2018-01-28T01:30:14.717Z,0
2018-01-28T01:31:17.203Z,0
2018-01-28T01:32:19.694Z,0
2018-01-28T01:33:22.189Z,0
2018-01-28T01:34:24.671Z,0
2018-01-28T01:35:27.168Z,0
2018-01-28T01:36:29.655Z,0
2018-01-28T01:37:32.437Z,0
2018-01-28T01:38:34.929Z,0
2018-01-28T01:39:38.010Z,0
2018-01-28T01:40:40.510Z,0
2018-01-28T01:41:42.989Z,0
2018-01-28T01:42:45.490Z,0
2018-01-28T01:43:48.266Z,0
2018-01-28T01:44:50.764Z,0
2018-01-28T01:45:53.259Z,0
2018-01-28T01:46:55.740Z,0
2018-01-28T01:47:58.234Z,0
2018-01-28T01:49:01.026Z,0
2018-01-28T01:50:03.521Z,0
2018-01-28T01:51:06.004Z,0
2018-01-28T01:52:08.500Z,0
2018-01-28T01:53:10.998Z,0
2018-01-28T01:54:13.477Z,0
2018-01-28T01:55:15.981Z,0
2018-01-28T01:56:18.470Z,0
2018-01-28T01:57:21.271Z,0
2018-01-28T01:58:23.764Z,0
2018-01-28T01:59:26.257Z,0
2018-01-28T02:00:28.750Z,0
2018-01-28T02:01:31.252Z,0
2018-01-28T02:02:33.743Z,0
2018-01-28T02:03:36.232Z,0
2018-01-28T02:04:38.720Z,0
2018-01-28T02:05:41.216Z,0
2018-01-28T02:06:43.704Z,0
2018-01-28T02:07:46.494Z,0
2018-01-28T02:08:48.989Z,0
2018-01-28T02:09:51.482Z,0
2018-01-28T02:10:53.979Z,0
2018-01-28T02:11:56.766Z,0
2018-01-28T02:12:59.240Z,0
2018-01-28T02:14:01.739Z,0
2018-01-28T02:15:04.508Z,0
2018-01-28T02:16:07.003Z,0
2018-01-28T02:17:09.500Z,0
2018-01-28T02:18:12.012Z,0
2018-01-28T02:19:14.484Z,0
2018-01-28T02:20:17.278Z,0
2018-01-28T02:21:20.068Z,0
2018-01-28T02:22:22.561Z,0
2018-01-28T02:23:25.055Z,0
2018-01-28T02:24:27.556Z,0
2018-01-28T02:25:30.040Z,0
2018-01-28T02:26:32.819Z,0
2018-01-28T02:27:35.326Z,0
2018-01-28T02:28:37.803Z,0
2018-01-28T02:29:40.296Z,0
2018-01-28T02:30:43.079Z,0
2018-01-28T02:31:45.575Z,0
2018-01-28T02:32:48.370Z,0
2018-01-28T02:33:50.870Z,0
2018-01-28T02:34:53.356Z,0
2018-01-28T02:35:55.862Z,0
2018-01-28T02:36:58.346Z,0
2018-01-28T02:38:00.848Z,0
2018-01-28T02:39:03.637Z,0
2018-01-28T02:40:06.193Z,0
2018-01-28T02:41:08.624Z,0
2018-01-28T02:42:11.119Z,0
2018-01-28T02:43:13.607Z,0
2018-01-28T02:44:16.106Z,0
2018-01-28T02:45:18.590Z,0
2018-01-28T02:46:21.086Z,0
2018-01-28T02:47:23.572Z,0
2018-01-28T02:48:26.078Z,0
2018-01-28T02:49:28.566Z,0
2018-01-28T02:50:31.060Z,0
2018-01-28T02:51:33.556Z,0
2018-01-28T02:52:36.056Z,0
2018-01-28T02:53:38.542Z,0
2018-01-28T02:54:41.030Z,0
2018-01-28T02:55:43.528Z,0
2018-01-28T02:56:46.024Z,0
2018-01-28T02:57:48.513Z,0
2018-01-28T02:58:51.012Z,0
2018-01-28T02:59:53.497Z,0
2018-01-28T03:00:56.295Z,0
2018-01-28T03:01:59.076Z,0
2018-01-28T03:03:01.557Z,0
2018-01-28T03:04:04.059Z,0
2018-01-28T03:05:06.546Z,0
2018-01-28T03:06:09.043Z,0
2018-01-28T03:07:11.534Z,0
2018-01-28T03:08:14.022Z,0
2018-01-28T03:09:16.510Z,0
2018-01-28T03:10:19.016Z,0
2018-01-28T03:11:21.555Z,0
2018-01-28T03:12:23.990Z,0
2018-01-28T03:13:26.495Z,0
2018-01-28T03:14:29.274Z,0
2018-01-28T03:15:31.780Z,0
2018-01-28T03:16:34.273Z,0
2018-01-28T03:17:36.765Z,0
2018-01-28T03:18:39.255Z,0
2018-01-28T03:19:41.759Z,0
2018-01-28T03:20:44.246Z,0
2018-01-28T03:21:46.727Z,0
2018-01-28T03:22:49.221Z,0
2018-01-28T03:23:52.010Z,0
2018-01-28T03:24:55.070Z,0
2018-01-28T03:25:57.567Z,0
2018-01-28T03:27:00.077Z,0
2018-01-28T03:28:02.566Z,0
2018-01-28T03:29:05.083Z,0
2018-01-28T03:30:07.558Z,0
2018-01-28T03:31:10.062Z,0
2018-01-28T03:32:12.845Z,0
2018-01-28T03:33:15.674Z,0
2018-01-28T03:34:18.162Z,0
2018-01-28T03:35:20.669Z,0
2018-01-28T03:36:23.436Z,0
2018-01-28T03:37:25.930Z,0
2018-01-28T03:38:28.421Z,0
2018-01-28T03:39:30.914Z,0
2018-01-28T03:40:33.409Z,0
2018-01-28T03:41:36.482Z,0
2018-01-28T03:42:38.968Z,0
2018-01-28T03:43:41.471Z,0
2018-01-28T03:44:43.955Z,0
2018-01-28T03:45:46.456Z,0
2018-01-28T03:46:49.236Z,0
2018-01-28T03:47:52.024Z,0
2018-01-28T03:48:54.513Z,0
2018-01-28T03:49:57.010Z,0
2018-01-28T03:50:59.500Z,0
2018-01-28T03:52:02.007Z,0
2018-01-28T03:53:04.489Z,0
2018-01-28T03:54:06.981Z,0
2018-01-28T03:55:09.489Z,0
2018-01-28T03:56:11.976Z,0
2018-01-28T03:57:14.777Z,0
2018-01-28T03:58:17.273Z,0
2018-01-28T03:59:19.761Z,0
2018-01-28T04:00:22.265Z,0
2018-01-28T04:01:24.765Z,0
2018-01-28T04:02:27.240Z,0
2018-01-28T04:03:29.738Z,0
2018-01-28T04:04:32.528Z,0
2018-01-28T04:05:35.304Z,0
2018-01-28T04:06:37.813Z,0
2018-01-28T04:07:40.296Z,0
2018-01-28T04:08:42.789Z,0
2018-01-28T04:09:45.295Z,0
2018-01-28T04:10:47.787Z,0
2018-01-28T04:11:50.285Z,0
2018-01-28T04:12:52.777Z,0
2018-01-28T04:13:55.271Z,0
2018-01-28T04:14:57.768Z,0
2018-01-28T04:16:00.262Z,0
2018-01-28T04:17:02.746Z,0
2018-01-28T04:18:05.241Z,0
2018-01-28T04:19:07.740Z,0
2018-01-28T04:20:10.821Z,0
2018-01-28T04:21:13.312Z,0
2018-01-28T04:22:15.809Z,0
2018-01-28T04:23:18.299Z,0
2018-01-28T04:24:20.795Z,0
2018-01-28T04:25:23.287Z,0
2018-01-28T04:26:25.783Z,0
2018-01-28T04:27:28.268Z,0
2018-01-28T04:28:30.772Z,0
2018-01-28T04:29:33.547Z,0
2018-01-28T04:30:36.046Z,0
2018-01-28T04:31:38.532Z,0
2018-01-28T04:32:41.327Z,0
2018-01-28T04:33:43.812Z,0
2018-01-28T04:34:46.312Z,0
2018-01-28T04:35:49.080Z,0
2018-01-28T04:36:51.866Z,0
2018-01-28T04:37:54.645Z,0
2018-01-28T04:38:57.137Z,0
2018-01-28T04:39:59.934Z,0
2018-01-28T04:41:02.722Z,0
2018-01-28T04:42:05.500Z,0
2018-01-28T04:43:08.295Z,0
2018-01-28T04:44:10.787Z,0
2018-01-28T04:45:13.283Z,0
2018-01-28T04:46:15.775Z,0
2018-01-28T04:47:18.269Z,0
2018-01-28T04:48:20.758Z,0
2018-01-28T04:49:23.248Z,0
2018-01-28T04:50:25.752Z,0
2018-01-28T04:51:28.250Z,0
2018-01-28T04:52:30.735Z,0
2018-01-28T04:53:33.231Z,0
2018-01-28T04:54:35.728Z,0
2018-01-28T04:55:38.216Z,0
2018-01-28T04:56:40.710Z,0
2018-01-28T04:57:43.199Z,0
2018-01-28T04:58:45.688Z,0
2018-01-28T04:59:48.204Z,0
2018-01-28T05:00:50.692Z,0
2018-01-28T05:01:53.192Z,0
2018-01-28T05:02:55.683Z,0
2018-01-28T05:03:58.177Z,0
2018-01-28T05:05:00.681Z,0
2018-01-28T05:06:03.187Z,0
2018-01-28T05:07:05.650Z,0
2018-01-28T05:08:08.149Z,0
2018-01-28T05:09:10.647Z,0
2018-01-28T05:10:13.134Z,0
2018-01-28T05:11:15.643Z,0
2018-01-28T05:12:18.133Z,0
2018-01-28T05:13:20.917Z,0
2018-01-28T05:14:23.425Z,0
2018-01-28T05:15:25.917Z,0
2018-01-28T05:16:28.408Z,0
2018-01-28T05:17:30.900Z,0
2018-01-28T05:18:33.389Z,0
2018-01-28T05:19:35.883Z,0
2018-01-28T05:20:38.377Z,0
2018-01-28T05:21:40.880Z,0
2018-01-28T05:22:43.373Z,0
2018-01-28T05:23:45.879Z,0
2018-01-28T05:24:48.377Z,0
2018-01-28T05:25:50.855Z,0
2018-01-28T05:26:53.365Z,0
2018-01-28T05:27:55.853Z,0
2018-01-28T05:28:58.352Z,0
2018-01-28T05:30:00.843Z,0
2018-01-28T05:31:03.337Z,0
2018-01-28T05:32:06.111Z,0
2018-01-28T05:33:08.618Z,0
2018-01-28T05:34:11.405Z,0
2018-01-28T05:35:13.903Z,0
2018-01-28T05:36:16.399Z,0
2018-01-28T05:37:18.893Z,0
2018-01-28T05:38:21.401Z,0
2018-01-28T05:39:23.903Z,0
2018-01-28T05:40:26.383Z,0
2018-01-28T05:41:28.888Z,0
2018-01-28T05:42:31.664Z,0
2018-01-28T05:43:34.170Z,0
2018-01-28T05:44:36.660Z,0
2018-01-28T05:45:39.213Z,0
2018-01-28T05:46:41.651Z,0
2018-01-28T05:47:44.166Z,0
2018-01-28T05:48:46.656Z,0
2018-01-28T05:49:49.130Z,0
2018-01-28T05:50:51.633Z,0
2018-01-28T05:51:54.414Z,0
2018-01-28T05:52:56.911Z,0
2018-01-28T05:53:59.411Z,0
2018-01-28T05:55:02.187Z,0
2018-01-28T05:56:04.681Z,0
2018-01-28T05:57:07.476Z,0
2018-01-28T05:58:09.964Z,0
2018-01-28T05:59:12.468Z,0
2018-01-28T06:00:14.954Z,0
2018-01-28T06:01:17.454Z,0
2018-01-28T06:02:19.944Z,0
2018-01-28T06:03:22.448Z,0
2018-01-28T06:04:25.218Z,0
2018-01-28T06:05:27.715Z,0
2018-01-28T06:06:30.210Z,0
2018-01-28T06:07:32.708Z,0
2018-01-28T06:08:35.202Z,0
2018-01-28T06:09:37.696Z,0
2018-01-28T06:10:40.761Z,0
2018-01-28T06:11:43.268Z,0
2018-01-28T06:12:45.771Z,0
2018-01-28T06:13:48.261Z,0
2018-01-28T06:14:50.759Z,0
2018-01-28T06:15:53.283Z,0
2018-01-28T06:16:55.748Z,0
2018-01-28T06:17:58.246Z,0
2018-01-28T06:19:00.739Z,0
2018-01-28T06:20:03.234Z,0
2018-01-28T06:21:05.728Z,0
2018-01-28T06:22:08.509Z,0
2018-01-28T06:23:11.007Z,0
2018-01-28T06:24:13.511Z,0
2018-01-28T06:25:16.003Z,0
2018-01-28T06:26:18.501Z,0
2018-01-28T06:27:20.996Z,0
2018-01-28T06:28:23.496Z,0
2018-01-28T06:29:26.272Z,0
2018-01-28T06:30:29.086Z,0
2018-01-28T06:31:31.571Z,0
2018-01-28T06:32:34.358Z,0
2018-01-28T06:33:36.848Z,0
2018-01-28T06:34:39.642Z,0
2018-01-28T06:35:42.131Z,4
2018-01-28T06:36:44.922Z,4
2018-01-28T06:37:47.411Z,0
2018-01-28T06:38:49.910Z,0
2018-01-28T06:39:52.392Z,4
2018-01-28T06:40:54.895Z,4
2018-01-28T06:41:57.392Z,4
2018-01-28T06:42:59.887Z,4
2018-01-28T06:44:02.382Z,4
2018-01-28T06:45:05.169Z,8
2018-01-28T06:46:07.942Z,12
2018-01-28T06:47:10.459Z,12
2018-01-28T06:48:12.958Z,12
2018-01-28T06:49:15.433Z,16
2018-01-28T06:50:17.935Z,16
2018-01-28T06:51:20.433Z,20
2018-01-28T06:52:22.931Z,24
2018-01-28T06:53:25.431Z,36
2018-01-28T06:54:27.933Z,40
2018-01-28T06:55:30.421Z,48
2018-01-28T06:56:33.215Z,44
2018-01-28T06:57:35.708Z,44
2018-01-28T06:58:38.192Z,56
2018-01-28T06:59:40.704Z,68
2018-01-28T07:00:43.199Z,76
2018-01-28T07:01:45.690Z,96
2018-01-28T07:02:48.199Z,116
2018-01-28T07:03:50.681Z,116
2018-01-28T07:04:53.178Z,116
2018-01-28T07:05:55.679Z,132
2018-01-28T07:06:58.166Z,156
2018-01-28T07:08:00.658Z,160
2018-01-28T07:09:03.162Z,184
2018-01-28T07:10:05.645Z,160
2018-01-28T07:11:08.158Z,164
2018-01-28T07:12:10.654Z,168
2018-01-28T07:13:13.424Z,176
2018-01-28T07:14:15.933Z,172
2018-01-28T07:15:18.545Z,176
2018-01-28T07:16:21.039Z,192
2018-01-28T07:17:23.532Z,228
2018-01-28T07:18:26.039Z,288
2018-01-28T07:19:28.538Z,232
2018-01-28T07:20:31.021Z,252
2018-01-28T07:21:33.523Z,304
2018-01-28T07:22:36.032Z,328
2018-01-28T07:23:38.522Z,320
2018-01-28T07:24:41.343Z,364
2018-01-28T07:25:43.833Z,404
2018-01-28T07:26:46.323Z,480
2018-01-28T07:27:48.831Z,572
2018-01-28T07:28:51.327Z,568
2018-01-28T07:29:53.813Z,592
2018-01-28T07:30:56.309Z,612
2018-01-28T07:31:58.805Z,688
2018-01-28T07:33:01.581Z,804
2018-01-28T07:34:04.085Z,952
2018-01-28T07:35:06.581Z,1044
2018-01-28T07:36:09.369Z,1056
2018-01-28T07:37:11.879Z,1016
2018-01-28T07:38:14.368Z,1044
2018-01-28T07:39:16.872Z,1180
2018-01-28T07:40:19.370Z,1180
2018-01-28T07:41:21.859Z,1304
2018-01-28T07:42:24.359Z,1544
2018-01-28T07:43:26.854Z,1644
2018-01-28T07:44:29.637Z,1884
2018-01-28T07:45:32.421Z,2204
2018-01-28T07:46:34.921Z,2244
2018-01-28T07:47:37.414Z,2480
2018-01-28T07:48:40.198Z,2704
2018-01-28T07:49:43.347Z,2780
2018-01-28T07:50:45.840Z,2948
2018-01-28T07:51:48.339Z,3284
2018-01-28T07:52:50.825Z,3832
2018-01-28T07:53:53.343Z,3868
2018-01-28T07:54:55.830Z,4448
2018-01-28T07:55:58.322Z,5492
2018-01-28T07:57:00.815Z,5448
2018-01-28T07:58:03.304Z,5372
2018-01-28T07:59:05.805Z,5796
2018-01-28T08:00:08.597Z,7048
2018-01-28T08:01:11.081Z,7772
2018-01-28T08:02:13.591Z,8016
2018-01-28T08:03:16.362Z,7552
2018-01-28T08:04:18.855Z,7232
2018-01-28T08:05:21.365Z,6952
2018-01-28T08:06:23.859Z,6372
2018-01-28T08:07:26.355Z,6236
2018-01-28T08:08:29.164Z,6888
2018-01-28T08:09:31.646Z,8196
2018-01-28T08:10:34.152Z,9420
2018-01-28T08:11:36.945Z,9420
2018-01-28T08:12:39.420Z,9544
2018-01-28T08:13:41.930Z,8764
2018-01-28T08:14:44.420Z,8612
2018-01-28T08:15:46.918Z,10092
2018-01-28T08:16:49.545Z,8684
2018-01-28T08:17:52.108Z,11048
2018-01-28T08:18:54.671Z,12140
2018-01-28T08:19:57.854Z,11044
2018-01-28T08:21:00.411Z,9536
2018-01-28T08:22:02.905Z,9420
2018-01-28T08:23:05.403Z,10272
2018-01-28T08:24:07.905Z,11616
2018-01-28T08:25:10.384Z,14320
2018-01-28T08:26:12.890Z,16256
2018-01-28T08:27:15.384Z,16192
2018-01-28T08:28:18.177Z,14048
2018-01-28T08:29:20.668Z,9264
2018-01-28T08:30:23.165Z,7456
2018-01-28T08:31:25.668Z,6620
2018-01-28T08:32:28.474Z,6632
2018-01-28T08:33:31.237Z,6924
2018-01-28T08:34:33.738Z,6224
2018-01-28T08:35:36.224Z,7364
2018-01-28T08:36:38.734Z,9176
2018-01-28T08:37:41.230Z,10692
2018-01-28T08:38:44.289Z,13132
2018-01-28T08:39:47.084Z,14224
2018-01-28T08:40:49.584Z,14852
2018-01-28T08:41:52.364Z,17312
2018-01-28T08:42:54.866Z,17984
2018-01-28T08:43:57.354Z,23968
2018-01-28T08:44:59.848Z,20512
2018-01-28T08:46:02.364Z,11760
2018-01-28T08:47:04.904Z,6716
2018-01-28T08:48:07.980Z,6544
2018-01-28T08:49:10.477Z,6820
2018-01-28T08:50:12.978Z,7212
2018-01-28T08:51:15.456Z,7884
2018-01-28T08:52:17.954Z,8996
2018-01-28T08:53:20.470Z,6560
2018-01-28T08:54:22.960Z,5976
2018-01-28T08:55:25.459Z,6804
2018-01-28T08:56:27.955Z,4604
2018-01-28T08:57:30.450Z,4436
2018-01-28T08:58:32.957Z,5324
2018-01-28T08:59:35.454Z,7672
2018-01-28T09:00:37.944Z,10448
2018-01-28T09:01:40.449Z,9364
2018-01-28T09:02:43.233Z,7920
2018-01-28T09:03:46.008Z,10268
2018-01-28T09:04:48.507Z,9384
2018-01-28T09:05:50.995Z,13096
2018-01-28T09:06:53.493Z,15008
2018-01-28T09:07:55.993Z,14312
2018-01-28T09:08:58.490Z,11172
2018-01-28T09:10:00.990Z,13096
2018-01-28T09:11:03.499Z,12168
2018-01-28T09:12:05.991Z,8656
2018-01-28T09:13:08.806Z,8040
2018-01-28T09:14:11.300Z,6732
2018-01-28T09:15:14.150Z,5076
2018-01-28T09:16:16.905Z,5216
2018-01-28T09:17:19.680Z,5860
2018-01-28T09:18:22.180Z,5000
2018-01-28T09:19:24.687Z,4824
2018-01-28T09:20:27.191Z,4720
2018-01-28T09:21:29.684Z,4576
2018-01-28T09:22:32.466Z,4824
2018-01-28T09:23:34.953Z,4584
2018-01-28T09:24:37.463Z,5248
2018-01-28T09:25:39.959Z,6420
2018-01-28T09:26:42.444Z,6016
2018-01-28T09:27:44.943Z,7456
2018-01-28T09:28:47.436Z,7796
2018-01-28T09:29:49.940Z,7756
2018-01-28T09:30:52.430Z,9348
2018-01-28T09:31:54.933Z,12688
2018-01-28T09:32:58.011Z,13644
2018-01-28T09:34:00.522Z,17388
2018-01-28T09:35:03.313Z,14144
2018-01-28T09:36:06.148Z,16228
2018-01-28T09:37:08.588Z,12620
2018-01-28T09:38:11.094Z,14316
2018-01-28T09:39:13.594Z,14160
2018-01-28T09:40:16.093Z,10196
2018-01-28T09:41:18.589Z,16304
2018-01-28T09:42:21.148Z,21152
2018-01-28T09:43:23.877Z,17668
2018-01-28T09:44:26.378Z,12692
2018-01-28T09:45:28.863Z,9540
2018-01-28T09:46:31.652Z,8404
2018-01-28T09:47:34.153Z,11044
2018-01-28T09:48:36.938Z,12440
2018-01-28T09:49:39.434Z,12096
2018-01-28T09:50:42.229Z,10520
2018-01-28T09:51:45.007Z,11396
2018-01-28T09:52:47.512Z,12876
2018-01-28T09:53:50.003Z,11448
2018-01-28T09:54:52.506Z,13840
2018-01-28T09:55:55.290Z,17300
2018-01-28T09:56:58.104Z,12812
2018-01-28T09:58:00.586Z,10044
2018-01-28T09:59:03.093Z,9760
2018-01-28T10:00:05.593Z,13076
2018-01-28T10:01:08.651Z,29504
2018-01-28T10:02:11.162Z,23264
2018-01-28T10:03:13.960Z,18036
2018-01-28T10:04:16.460Z,13532
2018-01-28T10:05:18.959Z,35392
2018-01-28T10:06:21.465Z,14224
2018-01-28T10:07:24.250Z,13120
2018-01-28T10:08:26.758Z,22368
2018-01-28T10:09:29.244Z,9712
2018-01-28T10:10:31.740Z,15744
2018-01-28T10:11:34.241Z,8396
2018-01-28T10:12:36.727Z,6416
2018-01-28T10:13:39.226Z,6692
2018-01-28T10:14:41.721Z,7900
2018-01-28T10:15:44.225Z,7132
2018-01-28T10:16:47.007Z,5888
2018-01-28T10:17:49.502Z,5900
2018-01-28T10:18:51.995Z,6356
2018-01-28T10:19:54.787Z,7156
2018-01-28T10:20:57.283Z,8144
2018-01-28T10:21:59.792Z,7336
2018-01-28T10:23:02.281Z,6056
2018-01-28T10:24:04.783Z,7236
2018-01-28T10:25:07.285Z,8780
2018-01-28T10:26:09.788Z,9652
2018-01-28T10:27:12.291Z,11220
2018-01-28T10:28:14.783Z,11316
2018-01-28T10:29:17.281Z,8824
2018-01-28T10:30:20.063Z,8684
2018-01-28T10:31:22.556Z,9564
2018-01-28T10:32:25.049Z,8592
2018-01-28T10:33:27.567Z,7832
2018-01-28T10:34:30.062Z,9660
2018-01-28T10:35:32.835Z,8692
2018-01-28T10:36:35.339Z,10976
2018-01-28T10:37:38.175Z,12004
2018-01-28T10:38:40.679Z,9232
2018-01-28T10:39:43.175Z,10300
2018-01-28T10:40:45.664Z,11052
2018-01-28T10:41:48.162Z,11944
2018-01-28T10:42:50.666Z,11224
2018-01-28T10:43:53.454Z,12800
2018-01-28T10:44:55.947Z,15392
2018-01-28T10:45:58.453Z,16648
2018-01-28T10:47:01.246Z,12600
2018-01-28T10:48:04.153Z,20000
2018-01-28T10:49:07.446Z,10032
2018-01-28T10:50:09.958Z,22592
2018-01-28T10:51:12.446Z,10840
2018-01-28T10:52:15.224Z,12860
2018-01-28T10:53:17.722Z,14244
2018-01-28T10:54:20.228Z,13396
2018-01-28T10:55:23.005Z,12416
2018-01-28T10:56:25.515Z,12648
2018-01-28T10:57:27.994Z,13828
2018-01-28T10:58:30.500Z,19520
2018-01-28T10:59:33.005Z,20032
2018-01-28T11:00:35.499Z,21216
2018-01-28T11:01:38.004Z,17684
2018-01-28T11:02:40.794Z,26208
2018-01-28T11:03:43.579Z,15428
2018-01-28T11:04:46.381Z,16128
2018-01-28T11:05:48.883Z,16720
2018-01-28T11:06:51.363Z,20512
2018-01-28T11:07:53.876Z,22240
2018-01-28T11:08:56.357Z,15728
2018-01-28T11:09:59.141Z,10416
2018-01-28T11:11:01.643Z,11040
2018-01-28T11:12:04.136Z,14228
2018-01-28T11:13:06.634Z,15140
2018-01-28T11:14:09.148Z,16168
2018-01-28T11:15:11.636Z,37024
2018-01-28T11:16:14.140Z,20416
2018-01-28T11:17:16.630Z,22048
2018-01-28T11:18:19.142Z,32672
2018-01-28T11:19:21.635Z,28896
2018-01-28T11:20:24.128Z,26656
2018-01-28T11:21:26.918Z,23776
2018-01-28T11:22:29.412Z,44608
2018-01-28T11:23:31.915Z,26080
2018-01-28T11:24:34.422Z,18220
2018-01-28T11:25:37.192Z,35616
2018-01-28T11:26:39.687Z,16800
2018-01-28T11:27:42.180Z,20768
2018-01-28T11:28:44.683Z,28352
2018-01-28T11:29:47.764Z,38944
2018-01-28T11:30:50.552Z,26848
2018-01-28T11:31:53.050Z,22144
2018-01-28T11:32:55.555Z,41184
2018-01-28T11:33:58.047Z,32736
2018-01-28T11:35:00.551Z,29504
2018-01-28T11:36:03.049Z,49632
2018-01-28T11:37:05.545Z,18072
2018-01-28T11:38:08.076Z,20608
2018-01-28T11:39:10.890Z,42848
2018-01-28T11:40:13.375Z,23648
2018-01-28T11:41:15.880Z,48416
2018-01-28T11:42:18.379Z,50656
2018-01-28T11:43:20.877Z,21088
2018-01-28T11:44:23.379Z,27680
2018-01-28T11:45:26.167Z,21632
2018-01-28T11:46:28.662Z,18268
2018-01-28T11:47:31.170Z,13176
2018-01-28T11:48:33.665Z,14640
2018-01-28T11:49:36.180Z,11472
2018-01-28T11:50:38.685Z,15212
2018-01-28T11:51:41.523Z,15056
2018-01-28T11:52:44.029Z,16516
2018-01-28T11:53:46.819Z,20320
2018-01-28T11:54:49.324Z,18560
2018-01-28T11:55:51.829Z,17620
2018-01-28T11:56:54.308Z,23648
2018-01-28T11:57:57.108Z,21216
2018-01-28T11:58:59.620Z,15444
2018-01-28T12:00:02.126Z,14332
2018-01-28T12:01:04.611Z,16224
2018-01-28T12:02:07.114Z,12668
2018-01-28T12:03:09.886Z,12304
2018-01-28T12:04:12.407Z,11188
2018-01-28T12:05:14.925Z,11576
2018-01-28T12:06:17.400Z,13400
2018-01-28T12:07:19.905Z,13408
2018-01-28T12:08:22.693Z,13180
2018-01-28T12:09:25.485Z,12876
2018-01-28T12:10:27.993Z,13752
2018-01-28T12:11:31.059Z,14056
2018-01-28T12:12:33.558Z,14416
2018-01-28T12:13:36.073Z,13608
2018-01-28T12:14:38.569Z,12708
2018-01-28T12:15:41.360Z,12628
2018-01-28T12:16:43.865Z,13976
2018-01-28T12:17:46.370Z,14804
2018-01-28T12:18:48.864Z,15392
2018-01-28T12:19:51.368Z,14760
2018-01-28T12:20:53.879Z,12204
2018-01-28T12:21:56.359Z,11288
2018-01-28T12:22:58.878Z,12076
2018-01-28T12:24:01.372Z,13284
2018-01-28T12:25:03.867Z,13408
2018-01-28T12:26:06.362Z,13836
2018-01-28T12:27:08.862Z,14544
2018-01-28T12:28:11.350Z,14200
2018-01-28T12:29:13.863Z,14256
2018-01-28T12:30:16.354Z,14220
2018-01-28T12:31:18.862Z,14108
2018-01-28T12:32:21.356Z,13980
2018-01-28T12:33:23.864Z,13380
2018-01-28T12:34:26.360Z,12732
2018-01-28T12:35:28.869Z,11408
2018-01-28T12:36:31.353Z,11716
2018-01-28T12:37:33.921Z,15172
2018-01-28T12:38:36.362Z,15424
2018-01-28T12:39:38.856Z,14180
2018-01-28T12:40:41.355Z,13420
2018-01-28T12:41:43.859Z,12864
2018-01-28T12:42:46.356Z,12544
2018-01-28T12:43:48.857Z,12524
2018-01-28T12:44:51.358Z,12388
2018-01-28T12:45:53.865Z,12132
2018-01-28T12:46:56.352Z,11660
2018-01-28T12:47:58.852Z,11796
2018-01-28T12:49:01.362Z,12272
2018-01-28T12:50:04.149Z,12980
2018-01-28T12:51:06.652Z,13772
2018-01-28T12:52:09.454Z,14272
2018-01-28T12:53:12.242Z,14660
2018-01-28T12:54:14.749Z,17252
2018-01-28T12:55:17.254Z,18068
2018-01-28T12:56:20.021Z,18272
2018-01-28T12:57:22.532Z,18368
2018-01-28T12:58:25.317Z,13148
2018-01-28T12:59:27.817Z,9684
2018-01-28T13:00:30.615Z,8340
2018-01-28T13:01:33.093Z,7616
2018-01-28T13:02:35.593Z,6760
2018-01-28T13:03:38.096Z,6100
2018-01-28T13:04:40.592Z,5676
2018-01-28T13:05:43.094Z,6248
2018-01-28T13:06:45.593Z,7304
2018-01-28T13:07:48.089Z,6564
2018-01-28T13:08:50.600Z,6272
2018-01-28T13:09:53.686Z,4992
2018-01-28T13:10:56.181Z,4428
2018-01-28T13:11:58.983Z,4324
2018-01-28T13:13:01.773Z,4668
2018-01-28T13:14:04.269Z,4520
2018-01-28T13:15:07.078Z,5216
2018-01-28T13:16:09.878Z,7360
2018-01-28T13:17:12.664Z,7932
2018-01-28T13:18:15.165Z,7948
2018-01-28T13:19:17.976Z,7812
2018-01-28T13:20:20.459Z,8420
2018-01-28T13:21:22.972Z,7720
2018-01-28T13:22:25.466Z,7216
2018-01-28T13:23:27.962Z,6876
2018-01-28T13:24:30.470Z,5860
2018-01-28T13:25:32.960Z,5192
2018-01-28T13:26:35.459Z,5060
2018-01-28T13:27:37.972Z,4504
2018-01-28T13:28:40.458Z,4740
2018-01-28T13:29:42.961Z,6052
2018-01-28T13:30:45.461Z,9036
2018-01-28T13:31:47.957Z,10840
2018-01-28T13:32:50.459Z,10036
2018-01-28T13:33:52.964Z,9084
2018-01-28T13:34:55.453Z,8780
2018-01-28T13:35:58.541Z,7404
2018-01-28T13:37:01.027Z,6608
2018-01-28T13:38:03.532Z,4612
2018-01-28T13:39:06.033Z,4368
2018-01-28T13:40:08.530Z,3716
2018-01-28T13:41:11.027Z,3964
2018-01-28T13:42:13.533Z,4600
2018-01-28T13:43:16.029Z,4776
2018-01-28T13:44:18.535Z,5140
2018-01-28T13:45:21.022Z,4292
2018-01-28T13:46:23.839Z,3988
2018-01-28T13:47:26.331Z,4924
2018-01-28T13:48:28.826Z,5664
2018-01-28T13:49:31.326Z,6944
2018-01-28T13:50:33.825Z,5864
2018-01-28T13:51:36.326Z,4764
2018-01-28T13:52:39.134Z,3712
2018-01-28T13:53:41.620Z,3548
2018-01-28T13:54:44.117Z,3392
2018-01-28T13:55:46.928Z,3768
2018-01-28T13:56:49.704Z,4672
2018-01-28T13:57:52.209Z,5464
2018-01-28T13:58:54.705Z,5888
2018-01-28T13:59:57.208Z,4904
2018-01-28T14:00:59.718Z,4956
2018-01-28T14:02:02.517Z,4084
2018-01-28T14:03:05.312Z,4416
2018-01-28T14:04:07.811Z,5192
2018-01-28T14:05:10.313Z,4328
2018-01-28T14:06:12.803Z,3420
2018-01-28T14:07:15.300Z,3336
2018-01-28T14:08:17.780Z,3116
2018-01-28T14:09:20.278Z,3216
2018-01-28T14:10:22.789Z,3016
2018-01-28T14:11:25.282Z,2968
2018-01-28T14:12:27.782Z,3620
2018-01-28T14:13:30.277Z,3752
2018-01-28T14:14:32.772Z,3596
2018-01-28T14:15:35.277Z,3684
2018-01-28T14:16:37.772Z,4116
2018-01-28T14:17:40.272Z,4416
2018-01-28T14:18:42.763Z,4864
2018-01-28T14:19:45.540Z,4216
2018-01-28T14:20:48.064Z,3832
2018-01-28T14:21:50.545Z,3752
2018-01-28T14:22:53.048Z,4300
2018-01-28T14:23:55.831Z,4392
2018-01-28T14:24:58.334Z,4560
2018-01-28T14:26:00.843Z,4720
2018-01-28T14:27:03.626Z,5344
2018-01-28T14:28:06.129Z,6124